Time;durP1;ratioP1;P1;durP2;ratioP2;P2;SDS_P1;SDS_P2;PMS_P1;PMS_P2;Temp;Humidity;BMP_temperature;BMP_pressure;BME280_temperature;BME280_humidity;BME280_pressure;Samples;Min_cycle;Max_cycle;Signal;HPM_P1;HPM_P2
2021/12/10 00:00:10;;;;;;;;;;;;;;;7.52;100.00;96455.84;5095815;28;19924;-84
2021/12/10 00:02:39;;;;;;;;;;;;;;;7.40;100.00;96443.69;5095804;28;20285;-84
2021/12/10 00:05:07;;;;;;;;;;;;;;;7.60;100.00;96446.75;5078827;28;19985;-84
2021/12/10 00:07:34;;;;;;;;;;;;;;;7.43;100.00;96453.88;5078317;28;19924;-84
2021/12/10 00:10:06;;;;;;;;;;;;;;;7.31;100.00;96460.34;5078600;28;20312;-84
2021/12/10 00:12:37;;;;;;;;;;;;;;;7.39;100.00;96447.72;5078779;28;19924;-84
2021/12/10 00:15:05;;;;;;;;;;;;;;;7.65;100.00;96454.44;5078564;28;19924;-84
2021/12/10 00:17:33;;;;;;;;;;;;;;;7.67;100.00;96456.75;5094795;28;20462;-84
2021/12/10 00:20:01;;;;;;;;;;;;;;;7.74;100.00;96450.88;5095511;28;20371;-84
2021/12/10 00:22:37;;;;;;;;;;;;;;;7.80;100.00;96449.75;5095208;28;19924;-84
2021/12/10 00:25:12;;;;;;;;;;;;;;;7.68;100.00;96467.38;5095400;28;19931;-84
2021/12/10 00:27:39;;;;;;;;;;;;;;;7.60;100.00;96468.19;5078421;28;20384;-85
2021/12/10 00:30:11;;;;;;;;;;;;;;;7.56;100.00;96462.78;5078497;28;19924;-85
2021/12/10 00:32:44;;;;;;;;;;;;;;;7.31;100.00;96469.44;5095023;28;19924;-85
2021/12/10 00:35:21;;;;;;;;;;;;;;;7.31;100.00;96461.09;5095128;28;19924;-84
2021/12/10 00:37:48;;;;;;;;;;;;;;;7.18;100.00;96462.50;5094924;28;19946;-85
2021/12/10 00:40:17;;;;;;;;;;;;;;;7.06;100.00;96480.09;5094840;28;20544;-84
2021/12/10 00:42:45;;;;;;;;;;;;;;;7.14;100.00;96489.66;5096365;28;19947;-85
2021/12/10 00:45:14;;;;;;;;;;;;;;;7.35;100.00;96495.06;5094771;28;20394;-84
2021/12/10 00:47:41;;;;;;;;;;;;;;;7.30;100.00;96478.25;5094791;28;20070;-85
2021/12/10 00:50:12;;;;;;;;;;;;;;;7.47;100.00;96498.91;5094605;28;19924;-85
2021/12/10 00:52:42;;;;;;;;;;;;;;;7.75;100.00;96497.66;5094878;28;19924;-85
2021/12/10 00:55:10;;;;;;;;;;;;;;;7.67;100.00;96502.00;5077664;28;20409;-85
2021/12/10 00:57:38;;;;;;;;;;;;;;;7.23;100.00;96507.09;5094948;28;20279;-85
2021/12/10 01:00:12;;;;;;;;;;;;;;;7.43;100.00;96503.88;5094531;28;19930;-84
2021/12/10 01:02:39;;;;;;;;;;;;;;;7.27;100.00;96496.59;5093080;28;19990;-84
2021/12/10 01:05:07;;;;;;;;;;;;;;;7.51;100.00;96499.53;5095452;28;20331;-85
2021/12/10 01:07:36;;;;;;;;;;;;;;;7.74;100.00;96500.91;5077620;28;19924;-85
2021/12/10 01:10:09;;;;;;;;;;;;;;;7.62;100.00;96499.81;5077403;28;20290;-84
2021/12/10 01:12:39;;;;;;;;;;;;;;;7.49;100.00;96504.00;5111258;28;19931;-84
2021/12/10 01:26:21;;;;;;;;;;;;;;;7.08;100.00;96508.16;5093961;28;19924;-83
2021/12/10 01:28:51;;;;;;;;;;;;;;;7.10;100.00;96508.50;5094175;28;19930;-84
2021/12/10 01:31:18;;;;;;;;;;;;;;;6.80;100.00;96495.50;5095071;28;20375;-84
2021/12/10 01:33:46;;;;;;;;;;;;;;;7.24;100.00;96491.97;5110483;28;19924;-84
2021/12/10 01:36:13;;;;;;;;;;;;;;;7.05;100.00;96512.66;5060582;28;19960;-84
2021/12/10 01:38:42;;;;;;;;;;;;;;;6.96;100.00;96531.28;5093899;28;19931;-84
2021/12/10 01:41:12;;;;;;;;;;;;;;;7.17;100.00;96530.38;5093971;28;19964;-84
2021/12/10 01:44:14;;;;;;;;;;;;;;;6.98;100.00;96534.38;5060122;28;19924;-84
2021/12/10 01:46:43;;;;;;;;;;;;;;;7.03;100.00;96530.97;5093660;28;19924;-84
2021/12/10 01:49:12;;;;;;;;;;;;;;;6.98;100.00;96529.59;5094599;28;19956;-84
2021/12/10 01:51:41;;;;;;;;;;;;;;;7.06;100.00;96521.72;5093621;28;19924;-84
2021/12/10 01:54:12;;;;;;;;;;;;;;;7.06;100.00;96541.94;5093462;28;19929;-84
2021/12/10 01:56:40;;;;;;;;;;;;;;;7.10;100.00;96525.16;5076936;28;19931;-84
2021/12/10 01:59:09;;;;;;;;;;;;;;;6.95;100.00;96526.97;5093484;28;19960;-84
2021/12/10 02:01:41;;;;;;;;;;;;;;;7.00;100.00;96529.91;5093452;28;19924;-84
2021/12/10 02:04:13;;;;;;;;;;;;;;;7.02;100.00;96541.34;5076571;28;20024;-85
2021/12/10 02:06:41;;;;;;;;;;;;;;;7.33;100.00;96541.97;5076356;28;20374;-84
2021/12/10 02:09:08;;;;;;;;;;;;;;;7.24;100.00;96541.19;5093254;28;19928;-84
2021/12/10 02:11:36;;;;;;;;;;;;;;;6.87;100.00;96572.91;5076465;28;19931;-84
2021/12/10 02:14:04;;;;;;;;;;;;;;;6.64;100.00;96585.31;5093176;28;20014;-85
2021/12/10 02:16:31;;;;;;;;;;;;;;;6.12;100.00;96595.69;5059839;28;19974;-85
2021/12/10 02:18:58;;;;;;;;;;;;;;;5.74;100.00;96586.78;5092863;28;19924;-85
2021/12/10 02:21:28;;;;;;;;;;;;;;;5.69;100.00;96585.38;5093521;28;19928;-84
2021/12/10 02:23:57;;;;;;;;;;;;;;;5.85;100.00;96603.81;5094288;28;19924;-84
2021/12/10 02:26:26;;;;;;;;;;;;;;;6.09;100.00;96607.69;5076323;28;19924;-85
2021/12/10 02:28:54;;;;;;;;;;;;;;;6.18;100.00;96621.59;5093161;28;19924;-84
2021/12/10 02:31:22;;;;;;;;;;;;;;;6.30;100.00;96615.22;5092710;28;19924;-84
2021/12/10 02:33:49;;;;;;;;;;;;;;;6.53;100.00;96607.16;5075950;28;20019;-85
2021/12/10 02:36:17;;;;;;;;;;;;;;;6.54;100.00;96611.47;5076292;28;19931;-85
2021/12/10 02:38:46;;;;;;;;;;;;;;;6.58;100.00;96608.56;5092757;28;19931;-84
2021/12/10 02:41:14;;;;;;;;;;;;;;;6.70;100.00;96586.25;5075679;28;19934;-84
2021/12/10 02:43:41;;;;;;;;;;;;;;;6.71;100.00;96600.91;5093024;28;20050;-85
2021/12/10 02:46:09;;;;;;;;;;;;;;;6.63;100.00;96588.56;5075879;28;19931;-84
2021/12/10 02:48:36;;;;;;;;;;;;;;;6.72;100.00;96583.81;5076078;28;20026;-84
2021/12/10 02:51:04;;;;;;;;;;;;;;;6.38;100.00;96585.97;5075878;28;19924;-84
2021/12/10 02:53:35;;;;;;;;;;;;;;;6.72;100.00;96588.59;5092530;28;19924;-84
2021/12/10 02:56:03;;;;;;;;;;;;;;;6.73;100.00;96601.22;5076002;28;19928;-83
2021/12/10 02:58:30;;;;;;;;;;;;;;;6.47;100.00;96599.88;5109485;28;19963;-83
2021/12/10 03:01:00;;;;;;;;;;;;;;;6.47;100.00;96583.22;5092434;28;20015;-83
2021/12/10 03:03:27;;;;;;;;;;;;;;;6.92;100.00;96608.41;5093751;28;20565;-84
2021/12/10 03:05:55;;;;;;;;;;;;;;;6.76;100.00;96600.31;5076033;28;20290;-84
2021/12/10 03:08:22;;;;;;;;;;;;;;;6.63;100.00;96602.41;5092538;28;19947;-84
2021/12/10 03:10:50;;;;;;;;;;;;;;;6.58;100.00;96603.00;5092974;28;19924;-84
2021/12/10 03:13:17;;;;;;;;;;;;;;;6.67;100.00;96598.28;5092842;28;20054;-84
2021/12/10 03:15:44;;;;;;;;;;;;;;;6.38;100.00;96602.59;5093586;28;20120;-84
2021/12/10 03:18:14;;;;;;;;;;;;;;;6.27;100.00;96591.16;5075754;28;19977;-84
2021/12/10 03:20:41;;;;;;;;;;;;;;;6.40;100.00;96583.50;5109515;28;19924;-84
2021/12/10 03:23:11;;;;;;;;;;;;;;;6.11;100.00;96613.53;5075638;28;19932;-83
2021/12/10 03:25:38;;;;;;;;;;;;;;;6.53;100.00;96617.47;5058855;28;19981;-84
2021/12/10 03:28:06;;;;;;;;;;;;;;;6.27;100.00;96613.34;5058807;28;19966;-84
2021/12/10 03:30:36;;;;;;;;;;;;;;;6.07;100.00;96602.59;5087257;28;19924;-84
2021/12/10 03:33:03;;;;;;;;;;;;;;;5.88;100.00;96636.19;5073203;28;19931;-84
2021/12/10 03:35:32;;;;;;;;;;;;;;;5.92;100.00;96664.53;5072154;28;19925;-84
2021/12/10 03:38:00;;;;;;;;;;;;;;;5.47;100.00;96662.88;5055426;28;19925;-84
2021/12/10 03:40:28;;;;;;;;;;;;;;;5.38;100.00;96643.41;5072133;28;19929;-84
2021/12/10 03:42:58;;;;;;;;;;;;;;;5.41;100.00;96680.50;5072046;28;19924;-84
2021/12/10 03:45:31;;;;;;;;;;;;;;;5.20;100.00;96679.22;5071807;28;20406;-84
2021/12/10 03:48:03;;;;;;;;;;;;;;;5.47;100.00;96673.97;5055506;28;20302;-83
2021/12/10 03:50:31;;;;;;;;;;;;;;;5.29;100.00;96668.25;5072338;28;19929;-84
2021/12/10 03:52:59;;;;;;;;;;;;;;;5.25;100.00;96675.13;5091856;28;19960;-83
2021/12/10 03:55:27;;;;;;;;;;;;;;;5.20;100.00;96684.75;5075530;28;19935;-84
2021/12/10 03:57:55;;;;;;;;;;;;;;;5.09;100.00;96678.78;5092419;28;19924;-84
2021/12/10 04:00:23;;;;;;;;;;;;;;;5.02;100.00;96665.19;5075168;28;19931;-84
2021/12/10 04:02:50;;;;;;;;;;;;;;;5.15;100.00;96684.56;5075424;28;19931;-84
2021/12/10 04:05:18;;;;;;;;;;;;;;;5.29;100.00;96673.78;5075353;28;19924;-84
2021/12/10 04:07:46;;;;;;;;;;;;;;;5.26;100.00;96691.28;5076524;28;20086;-84
2021/12/10 04:10:14;;;;;;;;;;;;;;;5.12;100.00;96685.41;5075400;28;19924;-84
2021/12/10 04:12:41;;;;;;;;;;;;;;;5.09;100.00;96687.09;5075240;28;19963;-83
2021/12/10 04:15:09;;;;;;;;;;;;;;;5.12;100.00;96688.97;5075255;28;20013;-84
2021/12/10 04:17:38;;;;;;;;;;;;;;;4.95;100.00;96679.22;5076440;28;19964;-84
2021/12/10 04:20:07;;;;;;;;;;;;;;;5.19;100.00;96685.19;5075045;28;19931;-84
2021/12/10 04:22:34;;;;;;;;;;;;;;;5.13;100.00;96693.28;5092037;28;19925;-84
2021/12/10 04:25:03;;;;;;;;;;;;;;;4.94;100.00;96685.97;5075014;28;19974;-84
2021/12/10 04:27:30;;;;;;;;;;;;;;;4.89;100.00;96700.38;5076186;28;19924;-84
2021/12/10 04:29:58;;;;;;;;;;;;;;;4.89;100.00;96716.97;5091884;28;20058;-84
2021/12/10 04:32:26;;;;;;;;;;;;;;;5.13;100.00;96707.13;5075967;28;20430;-84
2021/12/10 04:34:54;;;;;;;;;;;;;;;5.09;100.00;96709.22;5058270;28;20021;-84
2021/12/10 04:37:21;;;;;;;;;;;;;;;4.90;100.00;96707.47;5074951;28;20436;-84
2021/12/10 04:39:48;;;;;;;;;;;;;;;5.13;100.00;96709.91;5078247;28;19928;-84
2021/12/10 04:42:18;;;;;;;;;;;;;;;5.10;100.00;96729.38;5094506;28;19931;-84
2021/12/10 04:44:45;;;;;;;;;;;;;;;5.06;100.00;96720.41;5094895;28;20542;-84
2021/12/10 04:47:12;;;;;;;;;;;;;;;4.89;100.00;96732.81;5078297;28;20393;-84
2021/12/10 04:49:40;;;;;;;;;;;;;;;4.68;100.00;96723.16;5077952;28;19995;-84
2021/12/10 04:52:07;;;;;;;;;;;;;;;4.85;100.00;96729.34;5078285;28;19955;-84
2021/12/10 04:54:38;;;;;;;;;;;;;;;4.73;100.00;96719.84;5094680;28;20306;-84
2021/12/10 04:57:05;;;;;;;;;;;;;;;4.78;100.00;96722.06;5094476;28;19928;-84
2021/12/10 04:59:35;;;;;;;;;;;;;;;5.09;100.00;96731.38;5077677;28;20434;-84
2021/12/10 05:02:04;;;;;;;;;;;;;;;4.92;100.00;96727.16;5095458;28;20286;-84
2021/12/10 05:04:31;;;;;;;;;;;;;;;4.73;100.00;96730.91;5111322;28;20427;-84
2021/12/10 05:06:59;;;;;;;;;;;;;;;4.94;100.00;96741.31;5094524;28;19931;-84
2021/12/10 05:09:26;;;;;;;;;;;;;;;4.84;100.00;96731.38;5077660;28;19924;-83
2021/12/10 05:11:54;;;;;;;;;;;;;;;5.09;100.00;96739.66;5094084;28;20011;-84
2021/12/10 05:14:21;;;;;;;;;;;;;;;4.80;100.00;96744.50;5094370;28;19968;-84
2021/12/10 05:16:50;;;;;;;;;;;;;;;4.78;100.00;96758.03;5077810;28;19959;-84
2021/12/10 05:19:20;;;;;;;;;;;;;;;4.83;100.00;96751.94;5111372;28;19924;-84
2021/12/10 05:21:48;;;;;;;;;;;;;;;4.70;100.00;96755.91;5094331;28;19985;-84
2021/12/10 05:24:16;;;;;;;;;;;;;;;4.98;100.00;96764.13;5077161;28;19990;-84
2021/12/10 05:26:43;;;;;;;;;;;;;;;5.09;100.00;96764.56;5095056;28;19924;-84
2021/12/10 05:29:11;;;;;;;;;;;;;;;5.04;100.00;96767.13;5077189;28;19924;-84
2021/12/10 05:31:43;;;;;;;;;;;;;;;5.15;100.00;96773.13;5110445;28;19965;-84
2021/12/10 05:34:13;;;;;;;;;;;;;;;5.21;100.00;96769.34;5110610;28;19924;-84
2021/12/10 05:36:41;;;;;;;;;;;;;;;5.00;100.00;96778.31;5060405;28;19930;-84
2021/12/10 05:39:08;;;;;;;;;;;;;;;5.18;100.00;96795.13;5093909;28;20014;-84
2021/12/10 05:41:36;;;;;;;;;;;;;;;5.25;100.00;96781.09;5094856;28;20027;-84
2021/12/10 05:44:04;;;;;;;;;;;;;;;5.15;100.00;96790.50;5094008;28;19924;-84
2021/12/10 05:46:31;;;;;;;;;;;;;;;5.12;100.00;96791.38;5093719;28;19924;-82
2021/12/10 05:49:00;;;;;;;;;;;;;;;5.12;100.00;96794.13;5076743;28;19931;-83
2021/12/10 05:51:27;;;;;;;;;;;;;;;5.07;100.00;96811.28;5076737;28;19935;-83
2021/12/10 05:53:54;;;;;;;;;;;;;;;5.13;100.00;96833.69;5094029;28;19924;-84
2021/12/10 05:56:21;;;;;;;;;;;;;;;5.01;100.00;96818.59;5093281;28;19924;-84
2021/12/10 05:58:49;;;;;;;;;;;;;;;4.94;100.00;96824.34;5093853;28;20027;-83
2021/12/10 06:01:17;;;;;;;;;;;;;;;4.74;100.00;96837.56;5094613;28;19924;-83
2021/12/10 06:03:51;;;;;;;;;;;;;;;4.75;100.00;96836.38;5076666;28;20447;-83
2021/12/10 06:06:20;;;;;;;;;;;;;;;4.45;100.00;96836.81;5093435;28;19924;-84
2021/12/10 06:08:48;;;;;;;;;;;;;;;4.58;100.00;96850.69;5072914;28;19925;-83
2021/12/10 06:11:17;;;;;;;;;;;;;;;4.58;100.00;96854.22;5072829;28;19925;-83
2021/12/10 06:13:45;;;;;;;;;;;;;;;4.48;100.00;96852.53;5072608;28;19924;-83
2021/12/10 06:16:12;;;;;;;;;;;;;;;4.74;100.00;96859.69;5072549;28;19924;-84
2021/12/10 06:18:40;;;;;;;;;;;;;;;4.82;100.00;96855.53;5074184;28;20385;-83
2021/12/10 06:21:07;;;;;;;;;;;;;;;4.72;100.00;96855.81;5074146;28;19931;-83
2021/12/10 06:23:34;;;;;;;;;;;;;;;4.76;100.00;96851.75;5089570;28;19931;-83
2021/12/10 06:26:04;;;;;;;;;;;;;;;4.67;100.00;96854.38;5056779;28;19924;-83
2021/12/10 06:28:34;;;;;;;;;;;;;;;4.66;100.00;96858.34;5072971;28;20323;-83
2021/12/10 06:31:01;;;;;;;;;;;;;;;4.77;100.00;96853.28;5072603;28;19971;-84
2021/12/10 06:33:31;;;;;;;;;;;;;;;4.59;100.00;96858.53;5055860;28;20353;-83
2021/12/10 06:36:00;;;;;;;;;;;;;;;4.59;100.00;96855.75;5073064;28;19930;-84
2021/12/10 06:38:27;;;;;;;;;;;;;;;4.43;100.00;96871.63;5072229;28;19960;-83
2021/12/10 06:40:54;;;;;;;;;;;;;;;4.48;100.00;96860.81;5056133;28;19924;-83
2021/12/10 06:43:22;;;;;;;;;;;;;;;4.46;100.00;96871.53;5073142;28;19932;-83
2021/12/10 06:45:51;;;;;;;;;;;;;;;4.57;100.00;96874.81;5089274;28;19925;-84
2021/12/10 06:48:20;;;;;;;;;;;;;;;4.59;100.00;96879.91;5056019;28;20440;-84
2021/12/10 06:50:49;;;;;;;;;;;;;;;4.49;100.00;96880.94;5074155;28;19939;-84
2021/12/10 06:53:17;;;;;;;;;;;;;;;4.47;100.00;96889.69;5073503;28;19960;-84
2021/12/10 06:55:44;;;;;;;;;;;;;;;4.52;100.00;96886.38;5056057;28;20370;-84
2021/12/10 06:58:12;;;;;;;;;;;;;;;4.62;100.00;96906.69;5055912;28;20070;-84
2021/12/10 07:00:41;;;;;;;;;;;;;;;4.64;100.00;96893.97;5072603;28;20362;-83
2021/12/10 07:03:17;;;;;;;;;;;;;;;4.61;100.00;96885.75;5072393;28;19924;-83
2021/12/10 07:05:45;;;;;;;;;;;;;;;4.71;100.00;96904.81;5089319;28;19967;-83
2021/12/10 07:08:12;;;;;;;;;;;;;;;4.53;100.00;96887.94;5072180;28;19950;-84
2021/12/10 07:10:40;;;;;;;;;;;;;;;4.84;100.00;96913.97;5088997;28;19925;-84
2021/12/10 07:13:07;;;;;;;;;;;;;;;4.66;100.00;96933.03;5072445;28;19932;-84
2021/12/10 07:15:36;;;;;;;;;;;;;;;4.91;100.00;96935.91;5072238;28;19924;-84
2021/12/10 07:18:04;;;;;;;;;;;;;;;4.68;100.00;96932.59;5055706;28;19931;-84
2021/12/10 07:20:31;;;;;;;;;;;;;;;5.01;100.00;96931.28;5055666;28;19925;-83
2021/12/10 07:22:59;;;;;;;;;;;;;;;5.04;100.00;96955.31;5055506;28;19924;-83
2021/12/10 07:25:26;;;;;;;;;;;;;;;4.76;100.00;96917.34;5072220;28;19925;-83
2021/12/10 07:27:53;;;;;;;;;;;;;;;5.06;100.00;96945.34;5059719;28;19932;-83
2021/12/10 07:30:22;;;;;;;;;;;;;;;4.95;100.00;96944.88;5076101;28;19929;-83
2021/12/10 07:32:50;;;;;;;;;;;;;;;4.75;100.00;96941.47;5075801;28;19939;-79
2021/12/10 07:35:17;;;;;;;;;;;;;;;4.87;100.00;96962.09;5077047;28;19924;-79
2021/12/10 07:37:44;;;;;;;;;;;;;;;4.74;100.00;96959.28;5077023;28;19932;-80
2021/12/10 07:40:14;;;;;;;;;;;;;;;4.78;100.00;96959.19;5077295;28;19932;-80
2021/12/10 07:42:44;;;;;;;;;;;;;;;4.80;100.00;96982.44;5078869;28;19983;-83
2021/12/10 07:45:15;;;;;;;;;;;;;;;4.73;100.00;96985.41;5062614;28;19977;-84
2021/12/10 07:47:42;;;;;;;;;;;;;;;4.83;100.00;96984.31;5096013;28;19924;-83
2021/12/10 07:50:12;;;;;;;;;;;;;;;4.48;100.00;96990.00;5097079;28;19924;-83
2021/12/10 07:52:40;;;;;;;;;;;;;;;4.31;100.00;96986.47;5095832;28;19924;-83
2021/12/10 07:55:09;;;;;;;;;;;;;;;4.35;100.00;97014.00;5079227;28;19924;-83
2021/12/10 07:57:36;;;;;;;;;;;;;;;4.38;100.00;97000.09;5095873;28;19931;-83
2021/12/10 08:00:08;;;;;;;;;;;;;;;4.45;100.00;97022.06;5095854;28;20018;-84
2021/12/10 08:02:40;;;;;;;;;;;;;;;4.52;100.00;97010.81;5095733;28;20283;-84
2021/12/10 08:05:08;;;;;;;;;;;;;;;4.75;100.00;97026.47;5093371;28;20362;-84
2021/12/10 08:07:36;;;;;;;;;;;;;;;4.73;100.00;97034.41;5075352;28;19928;-84
2021/12/10 08:10:04;;;;;;;;;;;;;;;4.66;100.00;97007.72;5075583;28;19928;-84
2021/12/10 08:12:32;;;;;;;;;;;;;;;4.77;100.00;97033.09;5075451;28;19924;-83
2021/12/10 08:15:00;;;;;;;;;;;;;;;4.90;100.00;97022.91;5076197;28;19973;-84
2021/12/10 08:17:27;;;;;;;;;;;;;;;4.93;100.00;97046.94;5078576;28;19924;-84
2021/12/10 08:19:58;;;;;;;;;;;;;;;4.80;100.00;97029.47;5078871;28;20555;-84
2021/12/10 08:22:26;;;;;;;;;;;;;;;4.94;100.00;97040.19;5095337;28;19928;-85
2021/12/10 08:24:54;;;;;;;;;;;;;;;4.86;100.00;97038.03;5055579;28;19925;-81
2021/12/10 08:27:21;;;;;;;;;;;;;;;4.73;100.00;97054.56;5092264;28;20394;-80
2021/12/10 08:29:49;;;;;;;;;;;;;;;4.68;100.00;97059.84;5095352;28;20331;-84
2021/12/10 08:32:20;;;;;;;;;;;;;;;4.57;100.00;97060.09;5095018;28;20286;-84
2021/12/10 08:34:48;;;;;;;;;;;;;;;4.66;100.00;97054.75;5041916;28;19925;-84
2021/12/10 08:37:16;;;;;;;;;;;;;;;4.63;100.00;97058.38;5077831;28;19946;-85
2021/12/10 08:39:46;;;;;;;;;;;;;;;4.49;100.00;97053.19;5078075;28;19924;-85
2021/12/10 08:42:14;;;;;;;;;;;;;;;4.61;100.00;97068.28;5094992;28;20322;-84
2021/12/10 08:44:42;;;;;;;;;;;;;;;4.58;100.00;97061.66;5078344;28;19931;-83
2021/12/10 08:47:12;;;;;;;;;;;;;;;4.54;100.00;97033.31;5112010;28;19939;-83
2021/12/10 08:49:39;;;;;;;;;;;;;;;4.62;100.00;97067.84;5095760;28;19931;-83
2021/12/10 08:52:08;;;;;;;;;;;;;;;4.84;100.00;97079.19;5094859;28;19930;-83
2021/12/10 08:54:36;;;;;;;;;;;;;;;4.73;100.00;97084.97;5094753;28;19931;-83
2021/12/10 08:57:04;;;;;;;;;;;;;;;4.62;100.00;97084.44;5094650;28;19930;-84
2021/12/10 08:59:32;;;;;;;;;;;;;;;4.52;100.00;97096.56;5095081;28;19924;-84
2021/12/10 09:02:00;;;;;;;;;;;;;;;4.81;100.00;97124.31;5094835;28;20302;-84
2021/12/10 09:04:29;;;;;;;;;;;;;;;4.75;100.00;97092.84;5094389;28;19924;-83
2021/12/10 09:07:03;;;;;;;;;;;;;;;4.76;100.00;97097.94;5094591;28;19931;-83
2021/12/10 09:09:30;;;;;;;;;;;;;;;4.97;100.00;97130.63;5078292;28;19947;-82
2021/12/10 09:12:00;;;;;;;;;;;;;;;4.80;100.00;97134.59;5077793;28;19924;-82
2021/12/10 09:14:31;;;;;;;;;;;;;;;5.10;100.00;97152.88;5094371;28;20396;-82
2021/12/10 09:16:58;;;;;;;;;;;;;;;5.08;100.00;97147.75;5094470;28;19924;-83
2021/12/10 09:19:25;;;;;;;;;;;;;;;5.11;100.00;97140.56;5094277;28;19924;-81
2021/12/10 09:21:52;;;;;;;;;;;;;;;5.08;100.00;97145.00;5111333;28;19947;-85
2021/12/10 09:24:20;;;;;;;;;;;;;;;4.93;100.00;97163.16;5061152;28;19971;-84
2021/12/10 09:26:49;;;;;;;;;;;;;;;4.96;100.00;97147.66;5077441;28;19928;-84
2021/12/10 09:29:17;;;;;;;;;;;;;;;5.02;100.00;97166.09;5077230;28;19981;-85
2021/12/10 09:31:44;;;;;;;;;;;;;;;4.99;100.00;97147.59;5094099;28;19924;-83
2021/12/10 09:34:12;;;;;;;;;;;;;;;5.14;100.00;97159.09;5093642;28;19955;-83
2021/12/10 09:36:40;;;;;;;;;;;;;;;5.16;100.00;97185.16;5093923;28;19924;-82
2021/12/10 09:39:08;;;;;;;;;;;;;;;5.30;100.00;97190.31;5060403;28;19923;-83
2021/12/10 09:41:35;;;;;;;;;;;;;;;5.34;100.00;97190.22;5094582;28;20435;-82
2021/12/10 09:44:03;;;;;;;;;;;;;;;5.59;100.00;97193.13;5080578;28;20393;-80
2021/12/10 09:46:31;;;;;;;;;;;;;;;5.45;100.00;97208.13;5087682;28;20007;-82
2021/12/10 09:48:58;;;;;;;;;;;;;;;5.53;100.00;97211.50;5067014;28;19924;-81
2021/12/10 09:51:30;;;;;;;;;;;;;;;5.54;100.00;97202.75;5067992;28;20379;-81
2021/12/10 09:53:59;;;;;;;;;;;;;;;5.41;100.00;97223.28;5087180;28;20394;-82
2021/12/10 09:56:27;;;;;;;;;;;;;;;5.52;100.00;97229.34;5084794;28;20810;-82
2021/12/10 09:58:56;;;;;;;;;;;;;;;5.50;100.00;97226.22;5087851;28;19928;-78
2021/12/10 10:01:28;;;;;;;;;;;;;;;5.71;100.00;97231.22;5086041;28;19924;-84
2021/12/10 10:04:01;;;;;;;;;;;;;;;5.92;100.00;97241.00;5086102;28;20374;-81
2021/12/10 10:06:32;;;;;;;;;;;;;;;5.55;100.00;97223.72;5090087;28;19928;-82
2021/12/10 10:09:00;;;;;;;;;;;;;;;5.62;100.00;97239.34;5080763;28;20014;-81
2021/12/10 10:11:41;;;;;;;;;;;;;;;5.19;100.00;97255.47;5085716;28;19931;-81
2021/12/10 10:14:08;;;;;;;;;;;;;;;5.08;100.00;97255.72;5078865;28;19925;-81
2021/12/10 10:16:38;;;;;;;;;;;;;;;5.13;100.00;97276.56;5066681;28;19924;-81
2021/12/10 10:19:05;;;;;;;;;;;;;;;4.98;100.00;97284.41;5067826;28;20432;-83
2021/12/10 10:21:34;;;;;;;;;;;;;;;4.90;100.00;97276.69;5063468;28;19925;-82
2021/12/10 10:24:03;;;;;;;;;;;;;;;4.79;100.00;97285.22;5062495;28;20117;-81
2021/12/10 10:26:33;;;;;;;;;;;;;;;4.87;100.00;97289.41;5079141;28;20318;-80
2021/12/10 10:29:08;;;;;;;;;;;;;;;4.98;100.00;97287.16;5079005;28;20434;-80
2021/12/10 10:31:36;;;;;;;;;;;;;;;5.20;100.00;97285.50;5064044;28;19931;-81
2021/12/10 10:34:03;;;;;;;;;;;;;;;5.04;100.00;97310.34;5065036;28;19928;-81
2021/12/10 10:36:33;;;;;;;;;;;;;;;5.19;100.00;97308.88;5066127;28;19978;-81
2021/12/10 10:39:04;;;;;;;;;;;;;;;5.18;100.00;97318.34;5082907;28;19932;-80
2021/12/10 10:41:33;;;;;;;;;;;;;;;5.05;100.00;97314.72;5065230;28;19990;-81
2021/12/10 10:44:01;;;;;;;;;;;;;;;5.15;100.00;97321.22;5085858;28;20015;-81
2021/12/10 10:46:29;;;;;;;;;;;;;;;5.46;100.00;97331.56;5075124;28;20003;-80
2021/12/10 10:48:56;;;;;;;;;;;;;;;5.28;100.00;97319.34;5071708;28;20430;-78
2021/12/10 10:51:41;;;;;;;;;;;;;;;5.57;100.00;97326.53;5082895;28;20018;-78
2021/12/10 10:54:10;;;;;;;;;;;;;;;5.74;100.00;97340.41;5082289;28;20443;-77
2021/12/10 10:56:40;;;;;;;;;;;;;;;5.83;100.00;97335.09;5083495;28;19928;-77
2021/12/10 10:59:14;;;;;;;;;;;;;;;6.04;100.00;97348.41;5083886;28;19954;-78
2021/12/10 11:01:57;;;;;;;;;;;;;;;5.68;100.00;97331.06;5086804;28;19924;-78
2021/12/10 11:04:29;;;;;;;;;;;;;;;5.60;100.00;97358.91;5088959;28;19928;-79
2021/12/10 11:07:16;;;;;;;;;;;;;;;5.55;100.00;97366.97;5087517;28;19930;-78
2021/12/10 11:09:54;;;;;;;;;;;;;;;5.50;100.00;97376.56;5105606;28;19931;-78
2021/12/10 11:12:26;;;;;;;;;;;;;;;5.40;100.00;97371.28;5106107;28;19936;-79
2021/12/10 11:14:55;;;;;;;;;;;;;;;5.46;100.00;97383.41;5089688;28;19924;-77
2021/12/10 11:17:28;;;;;;;;;;;;;;;5.57;100.00;97395.03;5088812;28;19985;-78
2021/12/10 11:19:58;;;;;;;;;;;;;;;5.69;100.00;97377.75;5088134;28;19924;-78
2021/12/10 11:22:25;;;;;;;;;;;;;;;5.98;100.00;97389.75;5087317;28;19924;-79
2021/12/10 11:24:56;;;;;;;;;;;;;;;5.92;100.00;97379.59;5087900;28;19935;-79
2021/12/10 11:27:38;;;;;;;;;;;;;;;6.00;100.00;97387.31;5087763;28;20418;-78
2021/12/10 11:30:05;;;;;;;;;;;;;;;5.89;100.00;97388.78;5088543;28;20379;-77
2021/12/10 11:32:38;;;;;;;;;;;;;;;5.77;100.00;97383.88;5091158;28;20012;-82
2021/12/10 11:35:11;;;;;;;;;;;;;;;6.12;100.00;97397.69;5095315;28;20392;-81
2021/12/10 11:37:57;;;;;;;;;;;;;;;5.64;100.00;97383.78;5112137;28;19928;-81
2021/12/10 11:40:27;;;;;;;;;;;;;;;6.31;100.00;97390.50;5112397;28;19924;-81
2021/12/10 11:43:00;;;;;;;;;;;;;;;6.38;100.00;97391.09;5096331;28;19924;-82
2021/12/10 11:45:35;;;;;;;;;;;;;;;6.03;100.00;97403.06;5096343;28;19950;-84
2021/12/10 11:48:08;;;;;;;;;;;;;;;5.82;100.00;97397.25;5091999;28;19927;-81
2021/12/10 11:50:37;;;;;;;;;;;;;;;5.71;100.00;97389.16;5068751;28;19924;-82
2021/12/10 11:53:09;;;;;;;;;;;;;;;6.04;100.00;97412.16;5086047;28;19924;-82
2021/12/10 11:55:36;;;;;;;;;;;;;;;5.81;100.00;97392.91;5087683;28;19965;-82
2021/12/10 11:58:13;;;;;;;;;;;;;;;6.10;100.00;97418.75;5103973;28;19973;-82
2021/12/10 12:00:44;;;;;;;;;;;;;;;6.03;100.00;97418.94;5105385;28;19927;-82
2021/12/10 12:03:12;;;;;;;;;;;;;;;5.84;100.00;97405.91;5089673;28;19928;-82
2021/12/10 12:05:41;;;;;;;;;;;;;;;6.03;100.00;97410.63;5087877;28;19964;-82
2021/12/10 12:08:10;;;;;;;;;;;;;;;6.17;100.00;97432.44;5093367;28;19925;-82
2021/12/10 12:10:51;;;;;;;;;;;;;;;5.92;100.00;97412.88;5069420;28;19928;-81
2021/12/10 12:13:42;;;;;;;;;;;;;;;6.14;100.00;97416.66;5084469;28;20027;-81
2021/12/10 12:16:14;;;;;;;;;;;;;;;6.02;100.00;97422.91;5084713;28;20443;-81
2021/12/10 12:18:49;;;;;;;;;;;;;;;5.95;100.00;97407.25;5087464;28;20302;-82
2021/12/10 12:27:08;;;;;;;;;;;;;;;6.21;100.00;97430.38;5086182;28;19932;-81
2021/12/10 12:29:37;;;;;;;;;;;;;;;6.19;100.00;97433.59;5068626;28;19925;-82
2021/12/10 12:32:09;;;;;;;;;;;;;;;5.94;100.00;97429.84;5087701;28;19924;-79
2021/12/10 12:34:36;;;;;;;;;;;;;;;6.35;100.00;97446.66;5088845;28;20558;-85
2021/12/10 12:37:05;;;;;;;;;;;;;;;6.10;100.00;97438.16;5073289;28;20001;-85
2021/12/10 12:39:32;;;;;;;;;;;;;;;6.30;100.00;97449.97;5089461;28;20995;-85
2021/12/10 12:42:02;;;;;;;;;;;;;;;6.12;100.00;97460.72;5072889;28;19931;-87
2021/12/10 12:44:34;;;;;;;;;;;;;;;6.22;100.00;97466.00;5106609;28;19925;-88
2021/12/10 12:47:07;;;;;;;;;;;;;;;6.18;100.00;97464.53;5040247;28;19928;-81
2021/12/10 12:49:38;;;;;;;;;;;;;;;6.68;100.00;97464.84;5088890;28;19930;-84
2021/12/10 12:52:07;;;;;;;;;;;;;;;6.62;100.00;97472.91;5069944;28;20526;-82
2021/12/10 12:54:36;;;;;;;;;;;;;;;6.49;100.00;97465.72;5088927;28;20038;-84
2021/12/10 12:57:05;;;;;;;;;;;;;;;6.71;100.00;97458.44;5068297;28;19931;-83
2021/12/10 12:59:33;;;;;;;;;;;;;;;6.57;100.00;97456.78;5085955;28;19948;-83
2021/12/10 13:02:04;;;;;;;;;;;;;;;6.51;100.00;97471.63;5052698;28;19924;-82
2021/12/10 13:04:38;;;;;;;;;;;;;;;6.61;100.00;97470.56;5072685;28;19974;-85
2021/12/10 13:07:07;;;;;;;;;;;;;;;6.61;100.00;97468.56;5086924;28;19931;-85
2021/12/10 13:09:46;;;;;;;;;;;;;;;6.48;100.00;97478.03;5060704;28;19924;-83
2021/12/10 13:12:38;;;;;;;;;;;;;;;6.18;100.00;97476.38;5086618;28;19924;-82
2021/12/10 13:15:11;;;;;;;;;;;;;;;6.30;100.00;97474.94;5087952;28;19928;-82